createdAt,value
2022-10-10T00:00:54.661Z,7.25
2022-10-10T00:05:49.302Z,7.05
2022-10-10T00:10:45.453Z,6.65
2022-10-10T00:15:49.129Z,6.70
2022-10-10T00:20:42.363Z,6.22
2022-10-10T00:25:38.512Z,6.82
2022-10-10T00:30:32.472Z,7.00
2022-10-10T00:35:27.410Z,6.38
2022-10-10T00:40:20.982Z,7.65
2022-10-10T00:45:24.362Z,7.05
2022-10-10T00:50:18.673Z,7.47
2022-10-10T00:55:15.040Z,7.30
2022-10-10T01:00:11.527Z,7.20
2022-10-10T01:05:05.286Z,7.88
2022-10-10T01:10:02.245Z,7.43
2022-10-10T01:15:02.905Z,7.75
2022-10-10T01:20:29.308Z,6.90
2022-10-10T01:25:30.326Z,7.35
2022-10-10T01:30:25.711Z,7.80
2022-10-10T01:35:32.282Z,7.20
2022-10-10T01:40:31.489Z,6.93
2022-10-10T01:45:26.300Z,6.87
2022-10-10T01:50:22.961Z,6.70
2022-10-10T01:55:34.911Z,7.03
2022-10-10T02:00:29.944Z,6.78
2022-10-10T02:05:31.026Z,6.90
2022-10-10T02:10:29.801Z,7.97
2022-10-10T02:15:26.080Z,7.03
2022-10-10T02:20:27.021Z,7.00
2022-10-10T02:25:25.022Z,7.72
2022-10-10T02:30:25.935Z,7.40
2022-10-10T02:35:25.727Z,6.53
2022-10-10T02:40:24.382Z,6.80
2022-10-10T02:45:18.308Z,6.68
2022-10-10T02:50:11.596Z,7.68
2022-10-10T02:55:07.231Z,7.38
2022-10-10T03:00:03.198Z,6.65
2022-10-10T03:04:58.498Z,7.40
2022-10-10T03:09:51.881Z,6.82
2022-10-10T03:14:46.505Z,6.32
2022-10-10T03:19:39.787Z,6.20
2022-10-10T03:24:33.381Z,6.15
2022-10-10T03:29:26.600Z,5.78
2022-10-10T03:34:21.346Z,6.13
2022-10-10T03:39:21.137Z,6.25
2022-10-10T03:44:14.274Z,5.95
2022-10-10T03:49:07.501Z,6.07
2022-10-10T03:54:02.202Z,6.47
2022-10-10T03:58:55.538Z,5.38
2022-10-10T04:03:52.018Z,6.00
2022-10-10T04:08:46.435Z,5.60
2022-10-10T04:13:40.990Z,5.65
2022-10-10T04:18:35.045Z,5.25
2022-10-10T04:23:29.035Z,5.25
2022-10-10T04:28:23.642Z,5.00
2022-10-10T04:33:18.250Z,5.30
2022-10-10T04:38:11.494Z,5.32
2022-10-10T04:43:05.829Z,5.30
2022-10-10T04:47:59.049Z,4.70
2022-10-10T04:52:53.970Z,4.75
2022-10-10T04:57:55.076Z,5.88
2022-10-10T05:03:09.901Z,5.20
2022-10-10T05:08:04.787Z,4.60
2022-10-10T05:12:58.062Z,4.75
2022-10-10T05:17:51.345Z,4.47
2022-10-10T05:22:46.358Z,4.40
2022-10-10T05:27:41.467Z,5.00
2022-10-10T05:32:35.421Z,4.30
2022-10-10T05:37:28.584Z,4.75
2022-10-10T05:42:23.483Z,4.30
2022-10-10T05:47:22.171Z,4.03
2022-10-10T05:52:18.656Z,3.83
2022-10-10T05:57:24.428Z,4.10
2022-10-10T06:02:36.241Z,3.47
2022-10-10T06:08:02.495Z,3.80
2022-10-10T06:12:54.376Z,4.00
2022-10-10T06:17:49.097Z,3.45
2022-10-10T06:22:42.308Z,3.63
2022-10-10T06:27:36.879Z,4.25
2022-10-10T06:32:29.986Z,3.70
2022-10-10T06:37:24.545Z,3.70
2022-10-10T06:42:17.777Z,3.42
2022-10-10T06:47:12.937Z,3.25
2022-10-10T06:52:06.127Z,3.70
2022-10-10T06:57:00.664Z,3.58
2022-10-10T07:01:55.279Z,2.67
2022-10-10T07:13:15.003Z,2.92
2022-10-10T07:18:08.621Z,2.92
2022-10-10T07:23:02.030Z,3.53
2022-10-10T07:27:57.000Z,2.80
2022-10-10T07:32:52.126Z,2.75
2022-10-10T07:37:46.084Z,2.78
2022-10-10T07:42:39.321Z,2.40
2022-10-10T07:47:32.491Z,2.40
2022-10-10T07:52:27.149Z,2.70
2022-10-10T07:57:23.068Z,2.35
2022-10-10T08:02:16.419Z,3.05
2022-10-10T08:07:09.741Z,2.10
2022-10-10T08:12:05.042Z,2.40
2022-10-10T08:16:58.293Z,3.00
2022-10-10T08:21:51.758Z,2.33
2022-10-10T08:26:44.859Z,2.53
2022-10-10T08:31:39.608Z,2.50
2022-10-10T08:36:32.991Z,2.60
2022-10-10T08:41:38.890Z,3.00
2022-10-10T08:46:43.890Z,2.80
2022-10-10T08:51:42.458Z,2.50
2022-10-10T08:56:45.513Z,2.67
2022-10-10T09:02:18.665Z,2.92
2022-10-10T09:07:15.104Z,2.45
2022-10-10T09:12:19.011Z,3.58
2022-10-10T09:17:24.124Z,2.50
2022-10-10T09:22:24.287Z,2.60
2022-10-10T09:27:23.797Z,2.65
2022-10-10T09:32:22.191Z,2.70
2022-10-10T09:37:35.596Z,2.70
2022-10-10T09:42:37.512Z,2.78
2022-10-10T09:47:30.820Z,2.70
2022-10-10T09:52:30.262Z,2.88
2022-10-10T09:57:27.994Z,2.40
2022-10-10T10:02:24.084Z,2.63
2022-10-10T10:07:31.309Z,2.70
2022-10-10T10:12:28.577Z,2.90
2022-10-10T10:17:25.162Z,3.00
2022-10-10T10:22:27.305Z,3.50
2022-10-10T10:27:23.863Z,3.10
2022-10-10T10:32:29.307Z,2.55
2022-10-10T10:37:25.254Z,2.60
2022-10-10T10:42:33.922Z,2.65
2022-10-10T10:47:42.403Z,2.50
2022-10-10T10:52:57.903Z,2.92
2022-10-10T11:05:15.967Z,2.80
2022-10-10T11:08:54.342Z,2.85
2022-10-10T11:13:57.213Z,3.13
2022-10-10T11:19:08.928Z,2.72
2022-10-10T11:24:06.296Z,3.15
2022-10-10T11:29:05.832Z,2.67
2022-10-10T11:34:04.107Z,2.90
2022-10-10T11:39:04.489Z,3.00
2022-10-10T11:44:03.208Z,2.70
2022-10-10T11:49:02.278Z,3.03
2022-10-10T11:54:00.317Z,3.20
2022-10-10T11:58:58.916Z,3.15
2022-10-10T12:03:53.606Z,3.25
2022-10-10T12:08:55.037Z,3.25
2022-10-10T12:13:54.867Z,3.30
2022-10-10T12:23:50.428Z,3.30
2022-10-10T12:28:59.763Z,3.25
2022-10-10T12:34:05.318Z,2.90
2022-10-10T12:39:31.797Z,3.40
2022-10-10T12:44:43.001Z,2.97
2022-10-10T12:49:37.115Z,3.08
2022-10-10T12:54:34.524Z,3.00
2022-10-10T12:59:29.275Z,3.17
2022-10-10T13:04:24.855Z,2.67
2022-10-10T13:09:22.052Z,3.25
2022-10-10T13:14:15.404Z,3.20
2022-10-10T13:19:19.176Z,3.75
2022-10-10T13:24:17.783Z,3.10
2022-10-10T13:29:24.748Z,3.33
2022-10-10T13:34:26.409Z,3.65
2022-10-10T13:39:20.884Z,3.95
2022-10-10T13:44:16.565Z,3.30
2022-10-10T13:49:23.966Z,3.50
2022-10-10T13:54:39.906Z,3.35
2022-10-10T13:59:34.154Z,3.42
2022-10-10T14:04:34.213Z,4.18
2022-10-10T14:09:31.983Z,3.85
2022-10-10T14:14:33.132Z,3.53
2022-10-10T14:19:29.203Z,3.78
2022-10-10T14:24:22.471Z,4.05
2022-10-10T14:29:17.210Z,3.40
2022-10-10T14:34:17.123Z,3.40
2022-10-10T14:44:18.657Z,3.60
2022-10-10T14:49:19.656Z,3.15
2022-10-10T14:54:19.993Z,3.45
2022-10-10T14:59:19.089Z,3.72
2022-10-10T15:04:38.244Z,4.00
2022-10-10T15:09:41.559Z,3.87
2022-10-10T15:14:37.104Z,3.75
2022-10-10T15:19:36.169Z,3.45
2022-10-10T15:24:35.014Z,4.50
2022-10-10T15:29:28.601Z,4.70
2022-10-10T15:34:27.501Z,4.05
2022-10-10T15:39:25.227Z,3.75
2022-10-10T15:44:24.329Z,3.50
2022-10-10T15:49:20.471Z,3.60
2022-10-10T15:54:14.454Z,3.05
2022-10-10T16:04:28.335Z,3.65
2022-10-10T16:09:30.769Z,3.63
2022-10-10T16:14:29.090Z,4.00
2022-10-10T16:19:23.241Z,5.13
2022-10-10T16:24:16.758Z,3.90
2022-10-10T16:29:12.771Z,3.40
2022-10-10T16:34:13.144Z,3.30
2022-10-10T16:39:09.741Z,3.40
2022-10-10T16:44:41.315Z,3.35
2022-10-10T16:49:36.538Z,3.17
2022-10-10T16:54:33.251Z,3.33
2022-10-10T16:59:28.337Z,3.67
2022-10-10T17:04:41.098Z,3.90
2022-10-10T17:09:36.561Z,4.13
2022-10-10T17:14:33.526Z,3.72
2022-10-10T17:19:37.824Z,3.92
2022-10-10T17:24:52.302Z,4.30
2022-10-10T17:30:28.070Z,4.47
2022-10-10T17:35:26.213Z,4.22
2022-10-10T17:40:26.661Z,4.28
2022-10-10T17:46:39.027Z,3.83
2022-10-10T17:51:36.589Z,4.10
2022-10-10T17:56:32.938Z,3.90
2022-10-10T18:01:30.980Z,4.32
2022-10-10T18:07:09.930Z,5.30
2022-10-10T18:12:42.526Z,4.80
2022-10-10T18:17:47.294Z,4.00
2022-10-10T18:22:42.804Z,4.68
2022-10-10T18:27:41.846Z,4.30
2022-10-10T18:32:45.510Z,3.90
2022-10-10T18:37:48.609Z,4.10
2022-10-10T18:42:51.458Z,6.43
2022-10-10T18:47:45.245Z,4.85
2022-10-10T18:52:38.656Z,5.40
2022-10-10T18:57:47.466Z,4.43
2022-10-10T19:02:45.249Z,4.55
2022-10-10T19:07:38.774Z,4.50
2022-10-10T19:12:36.831Z,4.10
2022-10-10T19:17:33.703Z,4.30
2022-10-10T19:22:37.110Z,4.80
2022-10-10T19:27:39.134Z,3.88
2022-10-10T19:32:51.246Z,4.28
2022-10-10T19:38:01.387Z,4.22
2022-10-10T19:43:21.105Z,4.28
2022-10-10T19:48:32.128Z,4.30
2022-10-10T19:53:31.117Z,4.03
2022-10-10T19:58:29.670Z,4.03
2022-10-10T20:03:29.119Z,3.65
2022-10-10T20:08:32.601Z,3.77
2022-10-10T20:13:57.139Z,4.25
2022-10-10T20:18:57.856Z,4.35
2022-10-10T20:24:06.182Z,4.35
2022-10-10T20:29:03.990Z,3.80
2022-10-10T20:34:01.941Z,4.20
2022-10-10T20:38:55.984Z,4.28
2022-10-10T20:43:50.990Z,4.30
2022-10-10T20:49:05.259Z,4.10
2022-10-10T20:54:01.311Z,4.25
2022-10-10T20:59:03.233Z,4.40
2022-10-10T21:03:57.229Z,4.53
2022-10-10T21:08:51.752Z,3.70
2022-10-10T21:13:46.790Z,5.10
2022-10-10T21:18:43.016Z,4.03
2022-10-10T21:28:36.085Z,4.75
2022-10-10T21:33:29.966Z,4.00
2022-10-10T21:38:24.965Z,3.90
2022-10-10T21:43:19.207Z,4.40
2022-10-10T21:48:13.774Z,4.22
2022-10-10T21:53:08.275Z,4.30
2022-10-10T21:58:02.922Z,4.00
2022-10-10T22:02:56.154Z,4.05
2022-10-10T22:07:49.243Z,4.20
2022-10-10T22:12:42.466Z,4.13
2022-10-10T22:17:40.127Z,4.43
2022-10-10T22:22:36.085Z,4.43
2022-10-10T22:27:29.302Z,4.47
2022-10-10T22:32:22.630Z,3.90
2022-10-10T22:37:17.261Z,4.55
2022-10-10T22:42:10.482Z,4.53
2022-10-10T22:47:04.918Z,4.25
2022-10-10T22:51:58.170Z,4.80
2022-10-10T22:56:52.776Z,4.85
2022-10-10T23:01:46.384Z,4.18
2022-10-10T23:06:39.544Z,4.40
2022-10-10T23:11:32.886Z,4.35
2022-10-10T23:16:27.457Z,4.53
2022-10-10T23:21:20.919Z,4.40
2022-10-10T23:26:15.008Z,4.60
2022-10-10T23:31:10.238Z,4.38
2022-10-10T23:36:07.754Z,4.15
2022-10-10T23:41:04.258Z,4.65
2022-10-10T23:45:57.524Z,4.43
2022-10-10T23:50:50.816Z,4.72
2022-10-10T23:55:45.513Z,4.65
